createdAt,value
2018-04-13T00:00:27.478Z,40.87
2018-04-13T00:02:54.919Z,43.20
2018-04-13T00:05:22.383Z,41.87
2018-04-13T00:07:49.838Z,42.13
2018-04-13T00:10:17.267Z,42.13
2018-04-13T00:12:44.769Z,40.20
2018-04-13T00:15:12.210Z,41.23
2018-04-13T00:17:39.647Z,43.00
2018-04-13T00:20:07.072Z,41.93
2018-04-13T00:22:35.312Z,41.00
2018-04-13T00:25:02.753Z,39.33
2018-04-13T00:27:30.211Z,37.43
2018-04-13T00:29:57.646Z,39.20
2018-04-13T00:32:25.071Z,38.43
2018-04-13T00:34:53.307Z,38.93
2018-04-13T00:37:20.743Z,40.13
2018-04-13T00:39:48.225Z,39.73
2018-04-13T00:42:15.661Z,40.13
2018-04-13T00:44:43.140Z,41.43
2018-04-13T00:47:10.570Z,37.33
2018-04-13T00:49:38.003Z,38.57
2018-04-13T00:52:06.208Z,37.50
2018-04-13T00:54:33.684Z,38.93
2018-04-13T00:57:01.194Z,37.93
2018-04-13T00:59:28.610Z,39.43
2018-04-13T01:01:56.044Z,38.27
2018-04-13T01:04:23.515Z,36.60
2018-04-13T01:06:50.972Z,37.97
2018-04-13T01:09:18.431Z,36.70
2018-04-13T01:11:45.855Z,38.27
2018-04-13T01:14:13.315Z,37.33
2018-04-13T01:16:41.515Z,36.83
2018-04-13T01:19:08.939Z,37.30
2018-04-13T01:21:36.376Z,36.87
2018-04-13T01:24:04.589Z,35.97
2018-04-13T01:26:32.010Z,36.23
2018-04-13T01:29:00.233Z,36.00
2018-04-13T01:31:27.684Z,36.67
2018-04-13T01:33:55.111Z,36.97
2018-04-13T01:36:22.540Z,36.40
2018-04-13T01:38:49.974Z,36.90
2018-04-13T01:41:17.533Z,35.83
2018-04-13T01:43:44.960Z,35.40
2018-04-13T01:46:12.393Z,33.87
2018-04-13T01:48:40.591Z,32.73
2018-04-13T01:51:08.014Z,33.80
2018-04-13T01:53:36.239Z,33.20
2018-04-13T01:56:03.686Z,32.10
2018-04-13T01:58:31.105Z,28.37
2018-04-13T02:00:59.340Z,25.80
2018-04-13T02:03:26.767Z,23.63
2018-04-13T02:05:54.248Z,22.10
2018-04-13T02:08:21.679Z,19.67
2018-04-13T02:10:49.117Z,17.47
2018-04-13T02:13:17.313Z,18.67
2018-04-13T02:15:44.739Z,19.23
2018-04-13T02:18:12.969Z,20.30
2018-04-13T02:20:40.396Z,21.27
2018-04-13T02:23:07.838Z,21.00
2018-04-13T02:25:36.158Z,22.93
2018-04-13T02:28:03.647Z,23.10
2018-04-13T02:30:31.175Z,22.50
2018-04-13T02:32:58.613Z,22.33
2018-04-13T02:35:26.043Z,22.33
2018-04-13T02:37:54.235Z,21.30
2018-04-13T02:40:21.683Z,21.27
2018-04-13T02:42:49.124Z,20.77
2018-04-13T02:45:17.350Z,22.70
2018-04-13T02:47:44.776Z,25.53
2018-04-13T02:50:12.212Z,28.67
2018-04-13T02:52:40.411Z,33.97
2018-04-13T02:55:07.887Z,30.60
2018-04-13T02:57:35.318Z,35.10
2018-04-13T03:00:02.763Z,43.40
2018-04-13T03:02:30.976Z,33.13
2018-04-13T03:04:58.411Z,30.30
2018-04-13T03:07:25.853Z,30.23
2018-04-13T03:09:54.051Z,31.70
2018-04-13T03:12:21.503Z,31.10
2018-04-13T03:14:48.975Z,29.27
2018-04-13T03:17:16.414Z,29.13
2018-04-13T03:19:43.930Z,29.10
2018-04-13T03:22:12.351Z,28.90
2018-04-13T03:24:40.525Z,30.93
2018-04-13T03:27:07.951Z,29.97
2018-04-13T03:29:35.382Z,28.10
2018-04-13T03:32:02.819Z,28.03
2018-04-13T03:34:30.276Z,31.27
2018-04-13T03:36:57.711Z,25.57
2018-04-13T03:39:25.158Z,26.40
2018-04-13T03:41:53.337Z,27.83
2018-04-13T03:44:20.782Z,26.93
2018-04-13T03:46:48.981Z,27.80
2018-04-13T03:49:16.465Z,29.23
2018-04-13T03:51:43.946Z,33.37
2018-04-13T03:54:11.372Z,33.10
2018-04-13T03:56:38.822Z,33.23
2018-04-13T03:59:06.293Z,34.37
2018-04-13T04:01:33.715Z,32.87
2018-04-13T04:04:01.199Z,35.23
2018-04-13T04:06:28.628Z,37.73
2018-04-13T04:08:56.050Z,36.53
2018-04-13T04:11:24.282Z,35.20
2018-04-13T04:13:51.718Z,39.40
2018-04-13T04:16:19.206Z,38.80
2018-04-13T04:18:46.661Z,46.73
2018-04-13T04:21:25.996Z,44.57
2018-04-13T04:24:05.419Z,42.50
2018-04-13T04:26:50.855Z,39.07
2018-04-13T04:29:18.299Z,37.60
2018-04-13T04:31:45.727Z,35.50
2018-04-13T04:34:13.150Z,35.50
2018-04-13T04:36:40.583Z,32.53
2018-04-13T04:39:08.784Z,32.37
2018-04-13T04:41:36.267Z,32.67
2018-04-13T04:44:03.822Z,32.23
2018-04-13T04:46:31.232Z,30.27
2018-04-13T04:48:59.430Z,30.77
2018-04-13T04:51:26.859Z,29.63
2018-04-13T04:53:54.311Z,32.70
2018-04-13T04:56:21.767Z,32.20
2018-04-13T04:58:49.209Z,30.93
2018-04-13T05:01:16.652Z,32.27
2018-04-13T05:03:44.089Z,33.23
2018-04-13T05:06:11.528Z,34.70
2018-04-13T05:08:39.735Z,30.10
2018-04-13T05:11:07.166Z,31.17
2018-04-13T05:13:34.657Z,30.87
2018-04-13T05:16:02.082Z,31.53
2018-04-13T05:18:29.571Z,29.40
2018-04-13T05:20:57.011Z,30.50
2018-04-13T05:23:24.493Z,28.73
2018-04-13T05:25:51.946Z,31.10
2018-04-13T05:28:19.366Z,29.87
2018-04-13T05:30:46.868Z,28.90
2018-04-13T05:33:14.288Z,30.30
2018-04-13T05:35:41.732Z,29.97
2018-04-13T05:38:09.239Z,30.53
2018-04-13T05:40:36.680Z,32.03
2018-04-13T05:43:04.109Z,31.30
2018-04-13T05:45:31.553Z,29.47
2018-04-13T05:47:59.743Z,31.63
2018-04-13T05:50:27.174Z,29.83
2018-04-13T05:52:55.399Z,30.07
2018-04-13T05:55:22.835Z,29.93
2018-04-13T05:57:50.319Z,29.40
2018-04-13T06:00:17.779Z,28.50
2018-04-13T06:02:45.212Z,28.47
2018-04-13T06:05:12.642Z,30.73
2018-04-13T06:07:40.969Z,30.17
2018-04-13T06:10:08.425Z,29.93
2018-04-13T06:12:35.875Z,32.30
2018-04-13T06:15:03.341Z,31.03
2018-04-13T06:17:30.779Z,33.07
2018-04-13T06:19:58.250Z,29.93
2018-04-13T06:22:25.683Z,28.53
2018-04-13T06:24:53.163Z,28.80
2018-04-13T06:27:20.627Z,29.20
2018-04-13T06:29:48.075Z,25.23
2018-04-13T06:32:15.518Z,30.03
2018-04-13T06:34:42.942Z,31.37
2018-04-13T06:37:11.207Z,30.93
2018-04-13T06:39:38.660Z,31.00
2018-04-13T06:42:06.915Z,29.83
2018-04-13T06:44:34.355Z,32.43
2018-04-13T06:47:01.819Z,31.53
2018-04-13T06:49:29.274Z,30.70
2018-04-13T06:51:56.707Z,32.67
2018-04-13T06:54:24.194Z,32.87
2018-04-13T06:56:51.693Z,33.30
2018-04-13T06:59:19.910Z,32.30
2018-04-13T07:01:47.326Z,29.50
2018-04-13T07:04:15.545Z,28.37
2018-04-13T07:06:42.974Z,29.90
2018-04-13T07:09:10.419Z,28.70
2018-04-13T07:11:38.646Z,29.67
2018-04-13T07:14:06.075Z,25.73
2018-04-13T07:16:33.551Z,27.00
2018-04-13T07:19:00.975Z,26.97
2018-04-13T07:21:28.466Z,26.60
2018-04-13T07:23:55.926Z,27.97
2018-04-13T07:26:23.355Z,29.97
2018-04-13T07:28:50.830Z,29.27
2018-04-13T07:31:18.304Z,28.80
2018-04-13T07:33:45.766Z,29.67
2018-04-13T07:36:13.214Z,28.07
2018-04-13T07:38:40.674Z,26.97
2018-04-13T07:41:08.127Z,27.27
2018-04-13T07:43:35.572Z,27.07
2018-04-13T07:46:03.035Z,26.77
2018-04-13T07:48:30.483Z,28.60
2018-04-13T07:50:57.940Z,27.50
2018-04-13T07:53:25.373Z,29.17
2018-04-13T07:55:52.861Z,29.03
2018-04-13T07:58:20.307Z,29.50
2018-04-13T08:00:47.765Z,28.73
2018-04-13T08:03:15.207Z,30.43
2018-04-13T08:05:42.684Z,30.27
2018-04-13T08:08:10.409Z,30.07
2018-04-13T08:10:37.620Z,27.73
2018-04-13T08:13:05.061Z,28.70
2018-04-13T08:15:32.498Z,29.83
2018-04-13T08:18:00.028Z,30.73
2018-04-13T08:20:27.414Z,32.40
2018-04-13T08:22:54.855Z,31.40
2018-04-13T08:25:22.292Z,31.23
2018-04-13T08:27:50.519Z,32.67
2018-04-13T08:30:17.991Z,32.70
2018-04-13T08:32:45.503Z,31.27
2018-04-13T08:35:12.927Z,29.77
2018-04-13T08:37:41.150Z,27.50
2018-04-13T08:40:08.625Z,26.43
2018-04-13T08:42:36.065Z,26.70
2018-04-13T08:45:03.603Z,26.10
2018-04-13T08:47:31.096Z,26.03
2018-04-13T08:49:58.544Z,25.17
2018-04-13T08:52:26.011Z,25.00
2018-04-13T08:54:53.452Z,25.73
2018-04-13T08:57:20.917Z,24.83
2018-04-13T08:59:48.358Z,22.90
2018-04-13T09:02:15.799Z,22.40
2018-04-13T09:04:44.018Z,22.73
2018-04-13T09:07:11.472Z,21.30
2018-04-13T09:09:38.911Z,22.73
2018-04-13T09:12:06.391Z,22.50
2018-04-13T09:14:39.942Z,22.50
2018-04-13T09:17:07.452Z,23.93
2018-04-13T09:19:34.875Z,23.47
2018-04-13T09:22:02.362Z,23.73
2018-04-13T09:24:29.795Z,24.63
2018-04-13T09:26:57.251Z,21.67
2018-04-13T09:29:24.675Z,22.93
2018-04-13T09:31:52.912Z,20.87
2018-04-13T09:34:20.371Z,21.90
2018-04-13T09:36:47.818Z,22.63
2018-04-13T09:39:15.270Z,21.80
2018-04-13T09:41:42.722Z,23.47
2018-04-13T09:44:10.203Z,19.70
2018-04-13T09:46:37.659Z,20.83
2018-04-13T09:49:05.117Z,20.90
2018-04-13T09:51:32.547Z,21.40
2018-04-13T09:54:00.031Z,18.30
2018-04-13T09:56:27.487Z,18.27
2018-04-13T09:58:54.927Z,18.80
2018-04-13T10:01:22.367Z,19.20
2018-04-13T10:03:49.824Z,18.97
2018-04-13T10:06:17.274Z,18.97
2018-04-13T10:08:45.487Z,16.93
2018-04-13T10:11:12.948Z,14.93
2018-04-13T10:13:41.243Z,13.93
2018-04-13T10:16:08.679Z,14.03
2018-04-13T10:18:37.004Z,14.23
2018-04-13T10:21:05.223Z,14.40
2018-04-13T10:23:32.663Z,15.00
2018-04-13T10:26:00.122Z,16.83
2018-04-13T10:28:27.560Z,17.00
2018-04-13T10:30:55.767Z,17.67
2018-04-13T10:33:23.267Z,16.53
2018-04-13T10:35:50.683Z,17.80
2018-04-13T10:38:18.145Z,16.77
2018-04-13T10:40:45.579Z,16.97
2018-04-13T10:43:13.022Z,18.27
2018-04-13T10:45:41.245Z,18.00
2018-04-13T10:48:08.673Z,18.57
2018-04-13T10:50:36.158Z,17.47
2018-04-13T10:53:03.652Z,18.67
2018-04-13T10:55:31.860Z,18.67
2018-04-13T10:57:59.341Z,17.47
2018-04-13T11:00:26.768Z,19.33
2018-04-13T11:02:54.211Z,18.57
2018-04-13T11:05:22.413Z,18.50
2018-04-13T11:07:49.863Z,19.52
2018-04-13T11:10:17.346Z,19.27
2018-04-13T11:12:45.514Z,18.63
2018-04-13T11:15:12.952Z,18.23
2018-04-13T11:17:40.431Z,17.67
2018-04-13T11:20:07.886Z,20.30
2018-04-13T11:22:35.320Z,20.37
2018-04-13T11:25:02.799Z,19.93
2018-04-13T11:27:30.232Z,20.63
2018-04-13T11:29:57.727Z,20.30
2018-04-13T11:32:25.186Z,22.33
2018-04-13T11:34:52.631Z,22.10
2018-04-13T11:37:20.077Z,22.57
2018-04-13T11:39:47.515Z,22.27
2018-04-13T11:42:14.947Z,21.43
2018-04-13T11:44:43.204Z,22.70
2018-04-13T11:47:10.618Z,21.57
2018-04-13T11:49:38.085Z,22.07
2018-04-13T11:52:05.503Z,21.67
2018-04-13T11:54:33.701Z,22.83
2018-04-13T11:57:01.140Z,22.90
2018-04-13T11:59:29.367Z,23.23
2018-04-13T12:01:56.799Z,23.93
2018-04-13T12:04:24.247Z,25.00
2018-04-13T12:06:51.716Z,24.43
2018-04-13T12:09:19.178Z,26.17
2018-04-13T12:11:46.615Z,26.50
2018-04-13T12:14:14.121Z,26.47
2018-04-13T12:16:41.559Z,27.50
2018-04-13T12:19:09.011Z,27.17
2018-04-13T12:21:36.468Z,28.50
2018-04-13T12:24:03.947Z,29.47
2018-04-13T12:26:31.379Z,31.07
2018-04-13T12:28:58.839Z,29.30
2018-04-13T12:31:26.303Z,29.13
2018-04-13T12:33:53.745Z,30.63
2018-04-13T12:36:21.216Z,28.30
2018-04-13T12:38:48.671Z,27.13
2018-04-13T12:41:16.126Z,28.97
2018-04-13T12:43:43.694Z,28.50
2018-04-13T12:46:11.124Z,26.50
2018-04-13T12:48:38.587Z,26.77
2018-04-13T12:51:06.064Z,26.50
2018-04-13T12:53:33.495Z,25.90
2018-04-13T12:56:00.970Z,25.63
2018-04-13T12:58:28.531Z,29.53
2018-04-13T13:00:55.970Z,28.43
2018-04-13T13:03:23.398Z,27.50
2018-04-13T13:05:51.604Z,28.83
2018-04-13T13:08:19.087Z,28.63
2018-04-13T13:10:46.526Z,29.40
2018-04-13T13:13:13.983Z,27.70
2018-04-13T13:15:41.468Z,28.07
2018-04-13T13:18:08.855Z,26.83
2018-04-13T13:20:37.082Z,26.77
2018-04-13T13:23:04.551Z,27.57
2018-04-13T13:25:31.988Z,27.37
2018-04-13T13:27:59.455Z,26.67
2018-04-13T13:30:26.939Z,28.43
2018-04-13T13:32:54.483Z,27.23
2018-04-13T13:35:21.985Z,29.20
2018-04-13T13:37:50.211Z,28.63
2018-04-13T13:40:17.671Z,31.57
2018-04-13T13:42:45.115Z,28.73
2018-04-13T13:45:12.571Z,30.23
2018-04-13T13:47:40.062Z,30.00
2018-04-13T13:50:07.585Z,27.93
2018-04-13T13:52:35.055Z,28.90
2018-04-13T13:55:02.524Z,28.80
2018-04-13T13:57:29.972Z,27.10
2018-04-13T13:59:57.435Z,28.57
2018-04-13T14:02:24.880Z,27.67
2018-04-13T14:04:52.335Z,28.77
2018-04-13T14:07:19.774Z,26.53
2018-04-13T14:09:47.240Z,26.53
2018-04-13T14:12:14.699Z,28.47
2018-04-13T14:14:42.156Z,27.93
2018-04-13T14:17:09.585Z,27.07
2018-04-13T14:19:37.027Z,28.20
2018-04-13T14:22:05.355Z,27.43
2018-04-13T14:24:32.844Z,27.13
2018-04-13T14:27:00.280Z,28.47
2018-04-13T14:29:27.719Z,29.23
2018-04-13T14:31:55.165Z,27.83
2018-04-13T14:34:22.621Z,27.73
2018-04-13T14:36:50.100Z,30.47
2018-04-13T14:39:17.569Z,29.57
2018-04-13T14:41:45.112Z,32.13
2018-04-13T14:44:12.571Z,35.70
2018-04-13T14:46:40.031Z,34.23
2018-04-13T14:49:07.571Z,32.83
2018-04-13T14:51:35.029Z,35.67
2018-04-13T14:54:02.442Z,35.97
2018-04-13T14:56:30.646Z,36.10
2018-04-13T14:58:58.139Z,36.57
2018-04-13T15:01:25.584Z,36.80
2018-04-13T15:03:53.036Z,33.97
2018-04-13T15:06:20.472Z,37.47
2018-04-13T15:08:48.719Z,36.37
2018-04-13T15:11:16.946Z,37.63
2018-04-13T15:13:44.433Z,35.10
2018-04-13T15:16:11.857Z,35.20
2018-04-13T15:18:39.335Z,32.17
2018-04-13T15:21:06.763Z,32.67
2018-04-13T15:23:34.323Z,32.17
2018-04-13T15:26:01.740Z,32.30
2018-04-13T15:28:29.964Z,31.53
2018-04-13T15:30:57.395Z,33.83
2018-04-13T15:33:24.901Z,34.60
2018-04-13T15:35:52.435Z,34.43
2018-04-13T15:38:19.918Z,39.22
2018-04-13T15:40:47.452Z,34.03
2018-04-13T15:43:14.903Z,34.73
2018-04-13T15:45:42.389Z,35.93
2018-04-13T15:48:09.838Z,33.60
2018-04-13T15:50:37.282Z,35.20
2018-04-13T15:53:04.749Z,35.23
2018-04-13T15:55:32.210Z,34.20
2018-04-13T15:57:59.659Z,33.93
2018-04-13T16:00:27.121Z,34.50
2018-04-13T16:02:54.560Z,35.23
2018-04-13T16:05:22.198Z,35.27
2018-04-13T16:07:50.452Z,37.07
2018-04-13T16:10:18.684Z,35.83
2018-04-13T16:12:46.127Z,36.70
2018-04-13T16:15:13.601Z,35.83
2018-04-13T16:17:41.097Z,37.17
2018-04-13T16:20:08.616Z,36.13
2018-04-13T16:22:36.061Z,40.40
2018-04-13T16:25:03.560Z,40.93
2018-04-13T16:27:30.995Z,41.07
2018-04-13T16:29:58.435Z,39.30
2018-04-13T16:32:25.911Z,39.43
2018-04-13T16:34:53.363Z,38.17
2018-04-13T16:37:21.704Z,37.80
2018-04-13T16:39:49.147Z,38.30
2018-04-13T16:42:17.359Z,38.80
2018-04-13T16:44:44.799Z,38.57
2018-04-13T16:47:12.241Z,38.03
2018-04-13T16:49:40.465Z,37.97
2018-04-13T16:52:07.918Z,35.27
2018-04-13T16:54:35.367Z,36.77
2018-04-13T16:57:02.834Z,35.03
2018-04-13T16:59:30.291Z,33.80
2018-04-13T17:01:57.780Z,32.77
2018-04-13T17:04:25.250Z,33.07
2018-04-13T17:06:53.491Z,31.53
2018-04-13T17:09:20.975Z,32.60
2018-04-13T17:11:48.407Z,30.97
2018-04-13T17:14:15.882Z,30.80
2018-04-13T17:16:43.296Z,32.00
2018-04-13T17:19:10.760Z,30.03
2018-04-13T17:21:38.303Z,30.30
2018-04-13T17:24:05.755Z,29.13
2018-04-13T17:26:33.271Z,31.27
2018-04-13T17:29:01.539Z,31.37
2018-04-13T17:31:28.983Z,30.80
2018-04-13T17:33:56.420Z,31.87
2018-04-13T17:36:23.868Z,32.27
2018-04-13T17:38:51.347Z,32.37
2018-04-13T17:41:18.819Z,32.20
2018-04-13T17:43:46.372Z,30.80
2018-04-13T17:46:13.802Z,32.30
2018-04-13T17:48:41.295Z,32.27
2018-04-13T17:51:08.727Z,35.97
2018-04-13T17:53:36.163Z,32.77
2018-04-13T17:56:03.719Z,31.77
2018-04-13T17:58:31.151Z,33.07
2018-04-13T18:00:59.388Z,31.57
2018-04-13T18:03:26.836Z,32.47
2018-04-13T18:05:54.271Z,31.33
2018-04-13T18:08:21.722Z,31.80
2018-04-13T18:10:49.223Z,32.77
2018-04-13T18:13:16.672Z,33.30
2018-04-13T18:15:44.109Z,32.37
2018-04-13T18:18:11.559Z,32.90
2018-04-13T18:20:39.016Z,31.27
2018-04-13T18:23:06.459Z,31.30
2018-04-13T18:25:34.655Z,32.20
2018-04-13T18:28:02.104Z,30.73
2018-04-13T18:30:29.611Z,31.87
2018-04-13T18:32:57.118Z,32.40
2018-04-13T18:35:25.300Z,33.00
2018-04-13T18:37:52.788Z,30.53
2018-04-13T18:40:20.222Z,33.33
2018-04-13T18:42:47.712Z,32.10
2018-04-13T18:45:15.164Z,32.20
2018-04-13T18:47:42.600Z,32.53
2018-04-13T18:50:10.045Z,32.67
2018-04-13T18:52:37.541Z,34.00
2018-04-13T18:55:04.983Z,33.40
2018-04-13T18:57:32.527Z,34.93
2018-04-13T18:59:59.997Z,32.50
2018-04-13T19:02:27.541Z,33.23
2018-04-13T19:04:54.978Z,33.63
2018-04-13T19:07:22.417Z,32.37
2018-04-13T19:09:50.630Z,32.60
2018-04-13T19:12:18.091Z,31.70
2018-04-13T19:14:45.569Z,38.63
2018-04-13T19:17:18.915Z,32.67
2018-04-13T19:19:46.355Z,33.50
2018-04-13T19:22:14.560Z,32.37
2018-04-13T19:24:41.993Z,31.73
2018-04-13T19:27:10.211Z,33.60
2018-04-13T19:29:37.663Z,33.27
2018-04-13T19:32:05.113Z,32.40
2018-04-13T19:34:32.531Z,33.20
2018-04-13T19:37:00.735Z,34.97
2018-04-13T19:39:28.179Z,34.17
2018-04-13T19:41:56.406Z,35.70
2018-04-13T19:44:23.823Z,36.63
2018-04-13T19:46:51.275Z,37.17
2018-04-13T19:49:18.715Z,39.83
2018-04-13T19:51:46.911Z,36.73
2018-04-13T19:54:14.399Z,35.77
2018-04-13T19:56:41.859Z,36.30
2018-04-13T19:59:09.312Z,38.43
2018-04-13T20:01:37.531Z,37.73
2018-04-13T20:04:04.990Z,37.73
2018-04-13T20:06:32.428Z,36.73
2018-04-13T20:08:59.907Z,37.13
2018-04-13T20:11:27.352Z,36.33
2018-04-13T20:13:54.793Z,37.50
2018-04-13T20:16:22.271Z,36.20
2018-04-13T20:18:49.732Z,34.87
2018-04-13T20:21:17.177Z,36.33
2018-04-13T20:23:44.642Z,37.27
2018-04-13T20:26:12.074Z,37.33
2018-04-13T20:28:39.503Z,35.73
2018-04-13T20:31:07.750Z,38.40
2018-04-13T20:33:35.175Z,37.60
2018-04-13T20:36:02.663Z,37.83
2018-04-13T20:38:30.111Z,37.10
2018-04-13T20:40:57.546Z,36.30
2018-04-13T20:43:25.038Z,37.37
2018-04-13T20:45:52.478Z,35.17
2018-04-13T20:48:20.027Z,38.33
2018-04-13T20:50:47.498Z,38.30
2018-04-13T20:53:14.942Z,36.97
2018-04-13T20:55:42.391Z,35.67
2018-04-13T20:58:09.815Z,49.05
2018-04-13T21:00:38.166Z,40.93
2018-04-13T21:03:05.583Z,41.43
2018-04-13T21:05:33.048Z,38.97
2018-04-13T21:08:00.499Z,38.37
2018-04-13T21:10:27.919Z,38.07
2018-04-13T21:12:56.132Z,38.40
2018-04-13T21:15:23.613Z,37.77
2018-04-13T21:17:51.047Z,36.90
2018-04-13T21:20:18.487Z,40.90
2018-04-13T21:22:45.915Z,37.70
2018-04-13T21:25:14.151Z,38.77
2018-04-13T21:27:41.595Z,40.10
2018-04-13T21:30:09.050Z,39.07
2018-04-13T21:32:36.480Z,37.50
2018-04-13T21:35:03.949Z,39.93
2018-04-13T21:37:31.436Z,39.80
2018-04-13T21:39:58.892Z,38.87
2018-04-13T21:42:26.347Z,40.37
2018-04-13T21:44:53.824Z,39.80
2018-04-13T21:47:21.264Z,38.87
2018-04-13T21:49:48.708Z,39.63
2018-04-13T21:52:16.188Z,40.10
2018-04-13T21:54:43.634Z,37.33
2018-04-13T21:57:11.073Z,38.27
2018-04-13T21:59:38.519Z,38.47
2018-04-13T22:02:05.955Z,39.93
2018-04-13T22:04:34.163Z,39.57
2018-04-13T22:07:01.611Z,39.37
2018-04-13T22:09:29.091Z,37.83
2018-04-13T22:11:56.547Z,40.27
2018-04-13T22:14:35.883Z,38.10
2018-04-13T22:17:03.339Z,38.50
2018-04-13T22:19:30.767Z,38.67
2018-04-13T22:21:58.219Z,39.07
2018-04-13T22:24:26.415Z,38.43
2018-04-13T22:26:53.873Z,39.47
2018-04-13T22:29:21.295Z,39.93
2018-04-13T22:31:49.531Z,37.77
2018-04-13T22:34:16.977Z,39.37
2018-04-13T22:36:44.440Z,40.00
2018-04-13T22:39:11.880Z,39.93
2018-04-13T22:41:39.312Z,39.03
2018-04-13T22:44:06.835Z,40.50
2018-04-13T22:46:34.276Z,39.67
2018-04-13T22:49:01.829Z,39.73
2018-04-13T22:51:29.276Z,37.77
2018-04-13T22:54:04.559Z,39.37
2018-04-13T22:56:31.995Z,40.00
2018-04-13T22:58:59.444Z,37.23
2018-04-13T23:01:26.875Z,39.77
2018-04-13T23:03:54.311Z,38.40
2018-04-13T23:06:22.508Z,35.43
2018-04-13T23:08:49.951Z,34.63
2018-04-13T23:11:17.387Z,35.10
2018-04-13T23:13:45.591Z,35.70
2018-04-13T23:16:13.072Z,37.93
2018-04-13T23:18:40.523Z,38.90
2018-04-13T23:21:08.090Z,36.70
2018-04-13T23:23:35.527Z,38.07
2018-04-13T23:26:07.307Z,37.70
2018-04-13T23:28:34.778Z,39.00
2018-04-13T23:31:02.223Z,39.53
2018-04-13T23:33:29.686Z,39.10
2018-04-13T23:35:57.172Z,40.07
2018-04-13T23:38:24.665Z,38.90
2018-04-13T23:40:52.087Z,38.73
2018-04-13T23:43:20.327Z,39.87
2018-04-13T23:46:00.695Z,38.33
2018-04-13T23:48:28.144Z,40.07
2018-04-13T23:50:55.602Z,38.20
2018-04-13T23:53:29.727Z,37.80
2018-04-13T23:55:57.214Z,36.37
2018-04-13T23:58:24.655Z,37.03
